Time;durP1;ratioP1;P1;durP2;ratioP2;P2;SDS_P1;SDS_P2;PMS_P1;PMS_P2;Temp;Humidity;BMP_temperature;BMP_pressure;BME280_temperature;BME280_humidity;BME280_pressure;Samples;Min_cycle;Max_cycle;Signal;HPM_P1;HPM_P2
2023/09/21 00:01:19;;;;;;;;;4.00;2.00;;;;;14.52;92.55;99493.00;6279752;20;2741498;-58
2023/09/21 00:03:48;;;;;;;;;7.00;4.00;;;;;14.21;92.77;99480.09;6287896;20;2741995;-57
2023/09/21 00:06:17;;;;;;;;;5.50;4.00;;;;;13.93;93.73;99485.97;6280489;20;2748240;-56
2023/09/21 00:08:48;;;;;;;;;6.00;6.00;;;;;13.83;95.63;99470.53;6287840;20;2739937;-56
2023/09/21 00:11:18;;;;;;;;;8.00;8.00;;;;;14.32;95.06;99468.44;6285422;20;2733713;-56
2023/09/21 00:13:46;;;;;;;;;7.50;7.50;;;;;14.40;92.85;99466.00;6288349;20;2746151;-57
2023/09/21 00:16:18;;;;;;;;;7.00;7.00;;;;;14.25;93.23;99470.78;6281582;20;2739322;-56
2023/09/21 00:18:46;;;;;;;;;8.50;7.00;;;;;14.25;93.35;99465.38;6286831;20;2730548;-54
2023/09/21 00:21:15;;;;;;;;;7.00;7.00;;;;;13.87;94.25;99470.28;6282767;20;2738990;-57
2023/09/21 00:23:44;;;;;;;;;8.00;8.00;;;;;13.91;94.86;99469.06;6283730;20;2750430;-56
2023/09/21 00:26:15;;;;;;;;;8.00;7.60;;;;;14.21;94.96;99469.31;6305419;20;2737925;-56
2023/09/21 00:28:46;;;;;;;;;9.80;8.00;;;;;14.05;95.04;99480.47;6334107;20;2762787;-53
2023/09/21 00:31:15;;;;;;;;;10.50;8.75;;;;;14.20;94.18;99472.16;6307159;20;1932685;-53
2023/09/21 00:33:44;;;;;;;;;8.00;8.00;;;;;13.79;95.54;99469.03;6312896;20;2759650;-55
2023/09/21 00:36:17;;;;;;;;;9.50;8.00;;;;;14.17;95.35;99469.69;6311369;20;2745099;-57
2023/09/21 00:38:48;;;;;;;;;7.60;7.60;;;;;14.31;93.80;99473.97;6309239;20;2739923;-55
2023/09/21 00:41:18;;;;;;;;;7.40;7.40;;;;;14.53;92.87;99456.91;6338888;20;2744067;-58
2023/09/21 00:43:48;;;;;;;;;9.20;8.00;;;;;14.03;94.34;99468.06;6338698;20;2752403;-56
2023/09/21 00:46:22;;;;;;;;;8.60;7.40;;;;;14.69;93.00;99463.66;6334556;20;2738932;-56
2023/09/21 00:48:51;;;;;;;;;10.33;8.00;;;;;14.45;92.97;99465.63;6310192;20;2777427;-54
2023/09/21 00:51:20;;;;;;;;;12.60;9.20;;;;;14.59;93.11;99462.69;6334744;20;2786782;-55
2023/09/21 00:53:50;;;;;;;;;8.00;8.00;;;;;14.67;92.82;99465.63;6304169;20;2748250;-55
2023/09/21 00:56:20;;;;;;;;;9.20;9.20;;;;;14.37;93.75;99457.28;6302748;20;2769116;-58
2023/09/21 00:58:53;;;;;;;;;10.60;8.40;;;;;13.67;95.85;99451.13;6302008;20;2761733;-57
2023/09/21 01:01:27;;;;;;;;;8.50;7.00;;;;;13.55;97.04;99447.53;6282534;20;2742983;-55
2023/09/21 01:04:06;;;;;;;;;4.80;4.80;;;;;13.36;95.77;99453.50;6308650;20;2740898;-56
2023/09/21 01:06:39;;;;;;;;;5.86;5.86;;;;;14.29;92.35;99455.19;6351624;20;3448233;-56
2023/09/21 01:09:07;;;;;;;;;5.00;5.00;;;;;14.16;91.75;99454.47;6312540;20;2748296;-56
2023/09/21 01:11:39;;;;;;;;;5.00;5.00;;;;;14.13;91.17;99452.88;6284570;20;2737809;-56
2023/09/21 01:14:07;;;;;;;;;7.00;6.00;;;;;13.87;91.93;99454.09;6289179;20;2623231;-58
2023/09/21 01:16:35;;;;;;;;;9.00;6.50;;;;;13.90;93.24;99456.53;6281363;20;2739911;-55
2023/09/21 01:19:06;;;;;;;;;7.14;5.43;;;;;13.96;93.66;99448.81;6324497;20;3447168;-57
2023/09/21 01:21:37;;;;;;;;;9.00;6.00;;;;;13.77;94.16;99449.44;6312456;20;2734665;-57
2023/09/21 01:24:06;;;;;;;;;6.00;6.00;;;;;13.95;93.55;99451.63;6284974;20;2738921;-58
2023/09/21 01:26:38;;;;;;;;;7.14;7.14;;;;;13.44;95.15;99441.25;6319971;20;3455481;-55
2023/09/21 01:29:06;;;;;;;;;8.00;8.00;;;;;13.29;96.08;99441.44;6315682;20;2752497;-55
2023/09/21 01:31:34;;;;;;;;;7.00;7.00;;;;;13.05;97.56;99437.91;6289294;20;2748208;-55
2023/09/21 01:34:06;;;;;;;;;7.00;6.43;;;;;12.87;98.05;99438.31;6331829;20;3444022;-57
2023/09/21 01:36:35;;;;;;;;;7.40;6.80;;;;;13.09;97.01;99436.72;6339615;20;2737811;-53
2023/09/21 01:39:09;;;;;;;;;9.00;7.00;;;;;13.48;96.28;99432.81;6321078;20;2742981;-54
2023/09/21 01:41:37;;;;;;;;;10.00;7.00;;;;;13.82;94.46;99433.72;6287417;20;2757596;-54
2023/09/21 01:44:06;;;;;;;;;6.50;6.50;;;;;13.74;93.98;99421.81;6290226;20;2734680;-51
2023/09/21 01:46:34;;;;;;;;;7.00;6.00;;;;;13.56;94.08;99418.72;6282897;20;2745046;-53
2023/09/21 01:49:03;;;;;;;;;7.00;7.00;;;;;12.79;96.54;99431.78;6284116;20;2733623;-57
2023/09/21 01:51:32;;;;;;;;;7.00;7.00;;;;;13.19;97.31;99429.63;6279034;20;2748353;-53
2023/09/21 01:54:03;;;;;;;;;9.40;7.60;;;;;13.16;96.98;99422.66;6307533;20;2756523;-56
2023/09/21 01:56:33;;;;;;;;;6.00;6.00;;;;;13.42;96.18;99427.03;6281996;20;2733702;-56
2023/09/21 01:59:01;;;;;;;;;8.00;7.00;;;;;13.69;94.99;99424.88;6281350;20;2744050;-54
2023/09/21 02:01:30;;;;;;;;;10.00;8.20;;;;;13.40;95.49;99429.84;6304877;20;2771164;-54
2023/09/21 02:04:00;;;;;;;;;9.60;8.00;;;;;13.35;96.53;99427.50;6309174;20;2748188;-52
2023/09/21 02:06:28;;;;;;;;;10.50;7.50;;;;;13.69;95.45;99418.59;6283003;20;2775305;-52
2023/09/21 02:08:59;;;;;;;;;8.80;8.20;;;;;13.38;96.36;99419.19;6311726;20;2746155;-54
2023/09/21 02:11:29;;;;;;;;;8.40;8.40;;;;;13.63;96.28;99419.94;6343190;20;2735746;-56
2023/09/21 02:13:57;;;;;;;;;8.50;8.00;;;;;12.94;97.34;99418.00;6316378;20;2736844;-57
2023/09/21 02:16:25;;;;;;;;;9.00;7.00;;;;;12.94;97.67;99417.16;6286759;20;2739949;-51
2023/09/21 02:18:53;;;;;;;;;9.50;8.00;;;;;13.12;97.40;99404.13;6285402;20;2758578;-54
2023/09/21 02:21:24;;;;;;;;;7.80;7.20;;;;;13.51;95.16;99402.91;6312811;20;2732819;-52
2023/09/21 02:23:51;;;;;;;;;7.50;6.50;;;;;13.46;95.39;99406.94;6317960;20;2759691;-55
2023/09/21 02:26:21;;;;;;;;;9.00;8.00;;;;;13.45;95.34;99405.22;6305680;20;2752404;-57
2023/09/21 02:28:53;;;;;;;;;8.43;8.43;;;;;13.47;95.59;99403.25;6360644;20;3452347;-54
2023/09/21 02:31:21;;;;;;;;;8.50;8.50;;;;;13.29;95.94;99395.63;6316061;20;2749248;-57
2023/09/21 02:33:49;;;;;;;;;7.00;6.50;;;;;13.42;95.98;99397.38;6288264;20;2739874;-55
2023/09/21 02:36:21;;;;;;;;;8.00;8.00;;;;;12.92;97.14;99402.94;6327092;20;3456552;-56
2023/09/21 02:38:49;;;;;;;;;13.00;9.50;;;;;12.92;97.58;99392.16;6319777;20;2783782;-56
2023/09/21 02:41:20;;;;;;;;;12.00;9.40;;;;;12.66;99.20;99394.97;6312570;20;2781573;-55
2023/09/21 02:43:47;;;;;;;;;10.00;10.00;;;;;12.88;99.00;99401.47;6284124;20;2790930;-57
2023/09/21 02:46:15;;;;;;;;;11.00;8.50;;;;;12.74;98.68;99407.88;6283667;20;2768043;-54
2023/09/21 02:48:43;;;;;;;;;9.00;8.00;;;;;12.70;99.29;99403.72;6288601;20;2753377;-53
2023/09/21 02:51:15;;;;;;;;;10.40;9.20;;;;;12.49;99.85;99392.69;6311184;20;2752453;-54
2023/09/21 02:53:43;;;;;;;;;8.00;6.00;;;;;12.26;99.71;99399.78;6286730;20;2742957;-55
2023/09/21 02:56:19;;;;;;;;;9.00;8.00;;;;;12.76;97.78;99392.47;6307308;20;2753073;-55
2023/09/21 02:58:52;;;;;;;;;9.57;7.29;;;;;12.76;96.35;99387.06;6327397;20;1794064;-57
2023/09/21 03:01:20;;;;;;;;;7.50;7.00;;;;;12.50;96.91;99384.50;6316493;20;2740905;-56
2023/09/21 03:03:49;;;;;;;;;12.20;8.00;;;;;12.22;97.92;99385.69;6301796;20;2773214;-55
2023/09/21 03:06:19;;;;;;;;;7.50;6.50;;;;;12.90;96.84;99391.41;6282402;20;2748197;-55
2023/09/21 03:08:48;;;;;;;;;9.00;7.00;;;;;12.71;95.86;99383.88;6310687;20;2751368;-55
2023/09/21 03:11:16;;;;;;;;;10.00;7.00;;;;;12.82;96.04;99383.06;6315577;20;2755520;-54
2023/09/21 03:13:46;;;;;;;;;10.20;7.20;;;;;12.48;95.97;99383.78;6312331;20;2769051;-56
2023/09/21 03:16:16;;;;;;;;;10.40;7.40;;;;;12.33;97.63;99387.59;6306042;20;2764878;-56
2023/09/21 03:18:48;;;;;;;;;8.00;7.14;;;;;12.64;97.89;99385.31;6325415;20;3450286;-54
2023/09/21 03:21:18;;;;;;;;;10.40;9.20;;;;;12.54;96.64;99386.97;6339258;20;2762809;-53
2023/09/21 03:23:52;;;;;;;;;9.71;8.86;;;;;12.52;95.99;99390.63;6325530;20;3480520;-58
2023/09/21 03:26:21;;;;;;;;;13.33;8.00;;;;;12.80;96.22;99391.28;6310875;20;2766954;-55
2023/09/21 03:28:54;;;;;;;;;8.40;7.40;;;;;12.60;97.06;99386.50;6341266;20;2748231;-55
2023/09/21 03:31:24;;;;;;;;;11.60;9.00;;;;;13.17;95.91;99392.00;6338965;20;2767974;-53
2023/09/21 03:33:53;;;;;;;;;11.00;8.20;;;;;13.32;94.27;99395.41;6309285;20;2763844;-55
2023/09/21 03:36:23;;;;;;;;;9.20;9.20;;;;;13.08;94.81;99394.53;6307557;20;2773314;-54
2023/09/21 03:38:54;;;;;;;;;11.40;8.00;;;;;12.42;96.69;99388.72;6309310;20;2768037;-53
2023/09/21 03:41:22;;;;;;;;;9.00;8.00;;;;;12.90;96.35;99386.91;6281161;20;2752365;-54
2023/09/21 03:43:52;;;;;;;;;7.60;7.60;;;;;13.41;95.24;99390.25;6306631;20;2748187;-56
2023/09/21 03:46:23;;;;;;;;;10.80;9.80;;;;;13.05;95.52;99386.69;6335809;20;2794033;-55
2023/09/21 03:48:51;;;;;;;;;9.67;9.00;;;;;12.93;95.79;99381.28;6283590;20;2766980;-54
2023/09/21 03:51:20;;;;;;;;;9.00;9.00;;;;;13.20;96.24;99377.44;6309039;20;2744065;-56
2023/09/21 03:53:49;;;;;;;;;10.67;10.00;;;;;13.13;95.95;99385.13;6314756;20;2792090;-56
2023/09/21 03:56:17;;;;;;;;;10.50;8.50;;;;;13.26;95.64;99376.09;6308690;20;2763879;-56
2023/09/21 03:58:45;;;;;;;;;11.33;10.33;;;;;13.45;95.26;99383.63;6281543;20;2796149;-54
2023/09/21 04:01:13;;;;;;;;;15.50;13.00;;;;;13.30;95.64;99375.78;6314014;20;2805471;-54
2023/09/21 04:03:43;;;;;;;;;13.00;10.00;;;;;13.46;96.14;99369.19;6281437;20;2790906;-57
2023/09/21 04:06:12;;;;;;;;;13.33;9.67;;;;;12.86;97.35;99366.53;6309740;20;3496296;-55
2023/09/21 04:08:40;;;;;;;;;13.00;12.00;;;;;12.78;97.71;99368.13;6318898;20;2794058;-57
2023/09/21 04:11:08;;;;;;;;;10.00;10.00;;;;;12.69;97.36;99364.25;6281990;20;2779534;-54
2023/09/21 04:13:36;;;;;;;;;13.00;10.00;;;;;12.15;97.51;99360.19;6282547;20;2794073;-57
2023/09/21 04:16:05;;;;;;;;;8.00;8.00;;;;;12.32;97.09;99363.47;6281817;20;2750285;-54
2023/09/21 04:18:34;;;;;;;;;13.00;9.00;;;;;12.72;96.20;99359.53;6284094;20;2763846;-55
2023/09/21 04:21:08;;;;;;;;;12.00;11.00;;;;;12.90;95.35;99351.00;6288115;20;2782557;-57
2023/09/21 04:23:46;;;;;;;;;12.00;10.00;;;;;12.81;95.98;99357.94;6277045;20;2791937;-55
2023/09/21 04:26:14;;;;;;;;;11.00;9.50;;;;;13.00;95.46;99361.94;6277529;20;2785867;-53
2023/09/21 04:28:46;;;;;;;;;8.50;8.50;;;;;13.02;95.37;99365.38;6280439;20;2739893;-55
2023/09/21 04:31:14;;;;;;;;;12.00;8.00;;;;;13.09;95.24;99362.09;6280228;20;2758796;-54
2023/09/21 04:33:43;;;;;;;;;14.67;12.00;;;;;12.98;95.85;99359.38;6281305;20;2784638;-54
2023/09/21 04:36:11;;;;;;;;;13.00;12.00;;;;;12.52;96.68;99363.69;6308433;20;2793093;-52
2023/09/21 04:38:42;;;;;;;;;14.33;9.00;;;;;12.87;96.50;99357.47;6311138;20;2779511;-51
2023/09/21 04:41:14;;;;;;;;;15.00;13.00;;;;;12.98;96.63;99355.78;6316604;20;2787868;-56
2023/09/21 04:43:44;;;;;;;;;12.00;11.00;;;;;12.92;96.70;99357.97;6284918;20;2783665;-54
2023/09/21 04:46:17;;;;;;;;;11.00;10.00;;;;;12.96;96.81;99351.41;6284421;20;2788819;-52
2023/09/21 04:48:46;;;;;;;;;12.33;11.00;;;;;13.05;96.32;99357.91;6282493;20;3517981;-55
2023/09/21 04:51:16;;;;;;;;;14.33;12.00;;;;;13.60;95.25;99352.75;6311033;20;3511770;-56
2023/09/21 04:53:45;;;;;;;;;15.00;12.67;;;;;13.07;96.06;99352.41;6312450;20;3506627;-54
2023/09/21 04:56:13;;;;;;;;;13.00;11.00;;;;;13.35;95.87;99362.78;6313330;20;2791994;-56
2023/09/21 04:58:42;;;;;;;;;14.00;11.00;;;;;13.87;94.22;99357.78;6282615;20;3522156;-53
2023/09/21 05:01:11;;;;;;;;;11.50;10.00;;;;;13.92;93.00;99354.72;6313462;20;2789926;-55
2023/09/21 05:03:39;;;;;;;;;10.00;8.33;;;;;14.11;93.12;99360.31;6281221;20;2755500;-50
2023/09/21 05:06:08;;;;;;;;;11.00;9.00;;;;;14.32;91.94;99360.41;6315698;20;2772161;-59
2023/09/21 05:08:36;;;;;;;;;8.67;8.00;;;;;14.57;91.50;99359.28;6277946;20;2751782;-56
2023/09/21 05:11:05;;;;;;;;;11.33;9.00;;;;;14.42;91.31;99357.81;6306065;20;3492959;-56
2023/09/21 05:13:33;;;;;;;;;10.00;10.00;;;;;14.64;91.11;99356.91;6312327;20;2783604;-55
2023/09/21 05:16:01;;;;;;;;;15.00;12.00;;;;;14.64;91.00;99352.38;6311630;20;2798179;-55
2023/09/21 05:18:30;;;;;;;;;10.50;8.50;;;;;14.83;90.45;99356.25;6279582;20;2758644;-55
2023/09/21 05:21:01;;;;;;;;;10.33;10.33;;;;;14.79;90.33;99361.03;6276273;20;2774242;-58
2023/09/21 05:23:29;;;;;;;;;10.00;10.00;;;;;14.79;90.72;99354.78;6310497;20;2791012;-56
2023/09/21 05:25:59;;;;;;;;;8.60;8.60;;;;;14.94;90.41;99350.78;6303932;20;2756564;-57
2023/09/21 05:28:29;;;;;;;;;10.00;6.80;;;;;14.41;92.14;99350.72;6308137;20;2768089;-55
2023/09/21 05:30:57;;;;;;;;;10.00;9.00;;;;;14.21;92.97;99339.69;6283408;20;2772283;-56
2023/09/21 05:33:25;;;;;;;;;11.00;11.00;;;;;14.31;93.28;99344.34;6284043;20;2792016;-56
2023/09/21 05:35:54;;;;;;;;;10.00;10.00;;;;;14.62;91.94;99343.53;6277964;20;3509747;-56
2023/09/21 05:38:22;;;;;;;;;10.00;10.00;;;;;14.95;90.71;99346.22;6315605;20;2794218;-54
2023/09/21 05:40:51;;;;;;;;;13.33;13.00;;;;;15.04;90.12;99354.41;6280482;20;3517996;-54
2023/09/21 05:43:20;;;;;;;;;12.00;11.00;;;;;14.97;90.01;99358.63;6308433;20;3517995;-55
2023/09/21 05:45:48;;;;;;;;;10.00;10.00;;;;;15.39;88.96;99357.78;6310940;20;2781568;-55
2023/09/21 05:48:19;;;;;;;;;9.00;9.00;;;;;15.61;88.70;99363.00;6283987;20;2744151;-53
2023/09/21 05:50:47;;;;;;;;;9.00;9.00;;;;;15.94;88.11;99359.22;6285516;20;2748281;-53
2023/09/21 05:53:16;;;;;;;;;9.50;9.50;;;;;15.98;88.74;99366.09;6286742;20;2763815;-55
2023/09/21 05:55:44;;;;;;;;;10.00;10.00;;;;;16.36;87.53;99369.88;6287917;20;2633757;-54
2023/09/21 05:58:12;;;;;;;;;8.00;8.00;;;;;16.42;86.90;99376.59;6285719;20;2743024;-56
2023/09/21 06:00:41;;;;;;;;;13.40;10.20;;;;;16.07;87.42;99377.94;6304414;20;2791957;-54
2023/09/21 06:03:11;;;;;;;;;7.67;7.67;;;;;16.07;87.83;99382.50;6278027;20;2756541;-56
2023/09/21 06:05:39;;;;;;;;;7.00;7.00;;;;;16.33;87.48;99385.56;6316060;20;2736728;-55
2023/09/21 06:08:07;;;;;;;;;11.00;10.67;;;;;16.00;88.31;99380.31;6282038;20;3514845;-56
2023/09/21 06:10:35;;;;;;;;;10.00;9.00;;;;;16.09;88.93;99377.78;6308264;20;2774242;-56
2023/09/21 06:13:07;;;;;;;;;8.50;8.50;;;;;16.17;88.00;99377.97;6280819;20;2742000;-55
2023/09/21 06:15:37;;;;;;;;;12.50;11.00;;;;;16.20;87.97;99388.53;6285112;20;2794099;-54
2023/09/21 06:18:06;;;;;;;;;13.00;10.00;;;;;16.04;88.63;99405.28;6284272;20;2785744;-55
2023/09/21 06:20:34;;;;;;;;;13.00;8.50;;;;;16.09;89.20;99400.31;6319785;20;2765997;-55
2023/09/21 06:23:06;;;;;;;;;9.00;8.00;;;;;15.85;89.40;99395.25;6285662;20;2748163;-55
2023/09/21 06:26:05;;;;;;;;;12.60;9.20;;;;;15.82;90.12;99387.38;6308594;20;2778518;-57
2023/09/21 06:28:33;;;;;;;;;10.00;9.00;;;;;16.28;88.29;99395.97;6284417;20;2778373;-57
2023/09/21 06:31:05;;;;;;;;;12.20;10.60;;;;;16.09;88.20;99391.31;6308166;20;2791941;-57
2023/09/21 06:33:33;;;;;;;;;10.00;9.00;;;;;15.91;89.10;99383.84;6287709;20;2772155;-55
2023/09/21 06:36:03;;;;;;;;;11.67;10.67;;;;;16.32;88.50;99389.25;6278953;20;2794177;-54
2023/09/21 06:38:31;;;;;;;;;17.00;11.00;;;;;15.88;88.84;99381.44;6313215;20;3528534;-56
2023/09/21 06:41:00;;;;;;;;;12.00;9.00;;;;;15.89;90.06;99380.44;6314080;20;2773374;-56
2023/09/21 06:43:30;;;;;;;;;12.67;10.33;;;;;15.94;90.02;99375.47;6283576;20;3511157;-52
2023/09/21 06:46:00;;;;;;;;;11.60;10.60;;;;;16.01;90.22;99378.50;6337789;20;2788874;-53
2023/09/21 06:48:28;;;;;;;;;15.00;10.33;;;;;15.93;90.38;99378.28;6283860;20;3525415;-56
2023/09/21 06:50:57;;;;;;;;;10.00;10.00;;;;;16.24;90.44;99381.81;6309853;20;2780508;-57
2023/09/21 06:53:29;;;;;;;;;9.00;8.67;;;;;16.51;88.66;99377.59;6312019;20;2765029;-55
2023/09/21 06:55:58;;;;;;;;;9.00;9.00;;;;;16.65;88.90;99390.78;6315354;20;2748202;-56
2023/09/21 06:58:30;;;;;;;;;10.67;10.67;;;;;16.60;88.45;99379.50;6282140;20;2784729;-56
2023/09/21 07:00:59;;;;;;;;;11.00;8.50;;;;;16.23;89.11;99382.84;6319364;20;2771092;-47
2023/09/21 07:03:27;;;;;;;;;10.00;10.00;;;;;16.17;90.09;99373.41;6284474;20;2789992;-51
2023/09/21 07:05:55;;;;;;;;;10.00;9.00;;;;;16.13;90.18;99373.81;6285668;20;2760865;-53
2023/09/21 07:08:26;;;;;;;;;15.50;13.00;;;;;16.43;89.24;99370.19;6284184;20;2799367;-49
2023/09/21 07:10:55;;;;;;;;;8.00;8.00;;;;;16.70;88.36;99374.94;6305501;20;2735698;-51
2023/09/21 07:13:24;;;;;;;;;8.00;8.00;;;;;16.19;90.21;99363.31;6311903;20;2747134;-51
2023/09/21 07:15:55;;;;;;;;;10.14;8.43;;;;;16.13;90.79;99352.16;6324039;20;3494015;-52
2023/09/21 07:18:27;;;;;;;;;11.00;9.00;;;;;16.39;91.17;99347.94;6306438;20;3490086;-51
2023/09/21 07:20:59;;;;;;;;;12.33;9.50;;;;;16.39;90.87;99342.50;6356508;20;1804480;-51
2023/09/21 07:23:27;;;;;;;;;10.00;8.50;;;;;16.56;90.98;99337.38;6316830;20;2760775;-50
2023/09/21 07:25:57;;;;;;;;;9.40;8.00;;;;;16.95;89.81;99334.72;6307614;20;2751419;-51
2023/09/21 07:28:28;;;;;;;;;9.33;9.33;;;;;17.06;88.80;99340.88;6283950;20;2777402;-50
2023/09/21 07:30:57;;;;;;;;;11.33;8.33;;;;;17.42;87.69;99342.94;6315786;20;2761878;-50
2023/09/21 07:33:30;;;;;;;;;8.60;8.00;;;;;17.69;86.62;99343.00;6342813;20;2752418;-49
2023/09/21 07:35:58;;;;;;;;;10.00;9.00;;;;;17.66;84.91;99337.84;6284873;20;2771084;-49
2023/09/21 07:38:27;;;;;;;;;10.00;9.00;;;;;17.72;84.73;99337.28;6284443;20;2761888;-48
2023/09/21 07:40:57;;;;;;;;;9.00;9.00;;;;;17.57;85.01;99344.19;6338480;20;2752383;-53
2023/09/21 07:43:25;;;;;;;;;8.00;8.00;;;;;17.76;84.81;99349.53;6293549;20;2750368;-49
2023/09/21 07:45:57;;;;;;;;;10.60;10.00;;;;;17.53;84.73;99345.47;6311488;20;2796145;-51
2023/09/21 07:48:26;;;;;;;;;9.00;9.00;;;;;17.95;83.48;99354.06;6292230;20;2745173;-52
2023/09/21 07:50:56;;;;;;;;;12.00;9.00;;;;;17.78;84.36;99350.25;6281623;20;2765944;-49
2023/09/21 07:53:27;;;;;;;;;11.00;11.00;;;;;18.11;83.44;99353.41;6320986;20;2791968;-52
2023/09/21 07:56:05;;;;;;;;;15.00;10.67;;;;;18.29;82.85;99349.91;6309271;20;2804541;-52
2023/09/21 07:58:34;;;;;;;;;14.00;12.00;;;;;18.30;82.48;99357.03;6310995;20;3516928;-52
2023/09/21 08:01:02;;;;;;;;;13.67;11.00;;;;;18.31;82.46;99356.03;6313072;20;2792003;-52
2023/09/21 08:03:31;;;;;;;;;9.67;9.00;;;;;18.37;83.04;99350.81;6315109;20;3474345;-49
2023/09/21 08:06:01;;;;;;;;;8.00;8.00;;;;;18.68;81.75;99352.34;6340589;20;2754559;-49
2023/09/21 08:08:30;;;;;;;;;13.00;10.00;;;;;18.43;82.64;99346.63;6288205;20;2789955;-55
2023/09/21 08:10:59;;;;;;;;;10.00;8.00;;;;;18.90;81.29;99353.78;6315590;20;2754428;-55
2023/09/21 08:13:29;;;;;;;;;8.00;8.00;;;;;18.74;80.95;99343.56;6314910;20;2741966;-53
2023/09/21 08:15:59;;;;;;;;;10.67;9.00;;;;;19.24;79.91;99354.75;6317581;20;2766998;-52
2023/09/21 08:18:28;;;;;;;;;10.67;9.00;;;;;19.62;78.86;99358.09;6311664;20;2763918;-52
2023/09/21 08:20:57;;;;;;;;;10.67;9.00;;;;;20.26;76.84;99357.75;6316362;20;2773209;-51
2023/09/21 08:23:25;;;;;;;;;11.67;7.67;;;;;21.08;73.68;99356.09;6321258;20;2762304;-49
2023/09/21 08:25:55;;;;;;;;;8.00;7.00;;;;;21.13;72.87;99350.13;6323409;20;2733657;-53
2023/09/21 08:28:25;;;;;;;;;8.00;6.67;;;;;21.20;72.88;99356.59;6322628;20;2735675;-54
2023/09/21 08:30:57;;;;;;;;;8.00;7.20;;;;;21.24;72.81;99360.69;6340833;20;2744136;-51
2023/09/21 08:33:26;;;;;;;;;8.80;8.00;;;;;20.63;74.25;99359.28;6307170;20;2751363;-52
2023/09/21 08:35:55;;;;;;;;;11.00;10.00;;;;;20.45;73.66;99367.53;6285493;20;2787916;-53
2023/09/21 08:38:24;;;;;;;;;9.00;7.33;;;;;20.43;75.21;99364.97;6315284;20;2745064;-51
2023/09/21 08:40:54;;;;;;;;;7.00;7.00;;;;;20.66;74.67;99357.06;6337562;20;2731595;-53
2023/09/21 08:43:24;;;;;;;;;9.33;8.67;;;;;20.23;75.28;99364.41;6314320;20;2753497;-53
2023/09/21 08:45:53;;;;;;;;;8.33;8.33;;;;;19.97;75.82;99363.59;6320824;20;2751368;-48
2023/09/21 08:48:23;;;;;;;;;11.67;8.00;;;;;19.63;77.11;99358.94;6310656;20;2769081;-51
2023/09/21 08:50:54;;;;;;;;;9.33;7.67;;;;;19.67;78.27;99363.97;6311691;20;3477586;-50
2023/09/21 08:53:26;;;;;;;;;7.40;7.00;;;;;19.74;78.36;99361.44;6337632;20;2735925;-55
2023/09/21 08:55:58;;;;;;;;;10.20;7.60;;;;;19.52;78.27;99358.19;6338816;20;2764971;-50
2023/09/21 08:58:34;;;;;;;;;8.20;8.20;;;;;19.43;78.68;99361.91;6303946;20;2735828;-49
2023/09/21 09:01:05;;;;;;;;;10.80;9.60;;;;;19.45;79.03;99362.56;6333493;20;2771121;-54
2023/09/21 09:03:34;;;;;;;;;8.20;8.00;;;;;19.43;79.85;99351.00;6307610;20;2733638;-51
2023/09/21 09:06:04;;;;;;;;;10.20;10.00;;;;;19.19;79.90;99348.06;6333281;20;2771161;-51
2023/09/21 09:08:34;;;;;;;;;8.40;8.40;;;;;19.27;80.10;99356.31;6304796;20;2743139;-49
2023/09/21 09:11:03;;;;;;;;;6.00;6.00;;;;;19.12;80.89;99357.91;6313339;20;2739935;-52
2023/09/21 09:13:33;;;;;;;;;7.60;7.60;;;;;19.15;80.13;99357.59;6338930;20;2750347;-50
2023/09/21 09:16:05;;;;;;;;;7.40;5.80;;;;;18.99;82.85;99356.44;6306409;20;2742047;-50
2023/09/21 09:18:35;;;;;;;;;10.00;9.00;;;;;18.99;83.61;99353.72;6279715;20;2774264;-50
2023/09/21 09:21:05;;;;;;;;;13.00;10.33;;;;;18.83;84.06;99356.28;6312207;20;3518098;-51
2023/09/21 09:23:33;;;;;;;;;8.67;8.00;;;;;18.64;86.04;99360.84;6316224;20;2742116;-52
2023/09/21 09:26:11;;;;;;;;;10.00;7.50;;;;;18.83;87.50;99369.88;6309973;20;2761767;-49
2023/09/21 09:28:40;;;;;;;;;11.00;9.67;;;;;19.00;84.78;99360.84;6309037;20;2786954;-51
2023/09/21 09:31:12;;;;;;;;;10.33;9.00;;;;;18.91;87.13;99360.94;6323146;20;2759674;-51
2023/09/21 09:33:45;;;;;;;;;8.40;8.40;;;;;18.97;87.95;99361.16;6334453;20;2749361;-50
2023/09/21 09:36:18;;;;;;;;;9.33;9.33;;;;;19.08;86.93;99360.06;6274592;20;3497137;-51
2023/09/21 09:38:47;;;;;;;;;12.67;12.00;;;;;19.34;85.51;99356.53;6311641;20;3514850;-51
2023/09/21 09:41:18;;;;;;;;;8.60;8.60;;;;;19.58;82.79;99358.56;6303476;20;2748193;-53
2023/09/21 09:43:53;;;;;;;;;8.33;8.33;;;;;19.59;83.59;99361.16;6312631;20;2746251;-51
2023/09/21 09:46:23;;;;;;;;;7.33;7.33;;;;;19.21;85.47;99344.19;6320593;20;2740905;-51
2023/09/21 09:49:01;;;;;;;;;11.67;9.00;;;;;19.19;85.35;99338.03;6310110;20;2769088;-50
2023/09/21 09:52:00;;;;;;;;;8.60;8.40;;;;;19.19;85.61;99342.63;6342211;20;2745144;-52
2023/09/21 09:54:30;;;;;;;;;9.00;7.67;;;;;19.78;84.02;99342.91;6289061;20;2757578;-52
2023/09/21 09:57:01;;;;;;;;;9.00;7.33;;;;;19.38;84.11;99337.00;6311335;20;2759029;-51
2023/09/21 09:59:31;;;;;;;;;10.00;10.00;;;;;19.75;84.46;99333.19;6312880;20;2781709;-50
2023/09/21 10:02:05;;;;;;;;;10.60;9.60;;;;;20.19;81.14;99324.84;6337227;20;2772187;-48
2023/09/21 10:04:36;;;;;;;;;7.20;7.20;;;;;20.79;78.94;99319.22;6310182;20;2750314;-53
2023/09/21 10:07:06;;;;;;;;;7.67;7.67;;;;;21.20;77.62;99318.38;6290562;20;2751398;-53
2023/09/21 10:09:37;;;;;;;;;8.33;7.00;;;;;21.72;75.07;99322.56;6324099;20;2748197;-53
2023/09/21 10:12:07;;;;;;;;;8.00;5.00;;;;;23.12;71.12;99321.69;6314966;20;2741976;-55
2023/09/21 10:14:43;;;;;;;;;14.67;8.67;;;;;23.60;67.27;99318.66;6313375;20;2776383;-54
2023/09/21 10:17:14;;;;;;;;;11.33;7.00;;;;;23.27;65.56;99321.69;6318872;20;2762817;-54
2023/09/21 10:19:44;;;;;;;;;5.67;5.67;;;;;22.56;67.60;99313.69;6320601;20;2732060;-50
2023/09/21 10:22:26;;;;;;;;;5.40;4.00;;;;;22.24;69.18;99305.66;6345081;20;2737887;-54
2023/09/21 10:25:00;;;;;;;;;7.33;7.00;;;;;22.64;66.66;99309.19;6317320;20;2733730;-48
2023/09/21 10:27:33;;;;;;;;;10.00;6.00;;;;;22.69;67.17;99307.59;6314063;20;2757637;-53
2023/09/21 10:30:08;;;;;;;;;6.80;5.40;;;;;22.38;68.30;99302.19;6342337;20;2748254;-51
2023/09/21 10:32:49;;;;;;;;;6.33;6.00;;;;;22.52;68.87;99304.13;6292194;20;2742007;-49
2023/09/21 10:35:49;;;;;;;;;6.60;5.40;;;;;22.35;68.85;99299.78;6337055;20;2738863;-50
2023/09/21 10:38:19;;;;;;;;;6.40;6.40;;;;;22.53;67.19;99294.88;6310636;20;2745095;-52
2023/09/21 10:40:48;;;;;;;;;8.67;8.00;;;;;22.31;67.80;99290.25;6304637;20;2748280;-52
2023/09/21 10:43:42;;;;;;;;;4.00;4.00;;;;;22.66;67.82;99287.97;6340272;20;2742997;-52
2023/09/21 10:46:21;;;;;;;;;4.00;4.00;;;;;22.75;66.10;99284.16;6284323;20;2740022;-50
2023/09/21 10:49:17;;;;;;;;;3.00;3.00;;;;;22.91;66.58;99277.69;6339708;20;2739927;-48
2023/09/21 10:51:47;;;;;;;;;6.33;4.67;;;;;23.36;64.79;99274.03;6290859;20;2741948;-50
2023/09/21 10:54:18;;;;;;;;;4.40;3.40;;;;;23.80;63.21;99270.50;6338009;20;2748235;-51
2023/09/21 10:56:49;;;;;;;;;4.33;4.33;;;;;23.61;63.18;99265.53;6332027;20;1790383;-49
2023/09/21 10:59:19;;;;;;;;;2.40;2.40;;;;;23.55;63.85;99260.81;6341219;20;2749206;-54
2023/09/21 11:01:49;;;;;;;;;6.00;3.00;;;;;23.82;63.83;99254.69;6309276;20;2742019;-49
2023/09/21 11:04:20;;;;;;;;;5.40;4.20;;;;;23.59;62.84;99253.91;6310514;20;2741070;-52
2023/09/21 11:06:51;;;;;;;;;4.00;4.00;;;;;23.78;63.40;99247.88;6308026;20;2747269;-49
2023/09/21 11:09:20;;;;;;;;;4.20;4.20;;;;;23.39;63.91;99249.00;6308977;20;2752349;-50
2023/09/21 11:11:51;;;;;;;;;5.60;5.60;;;;;23.76;63.55;99241.75;6310586;20;2738220;-52
2023/09/21 11:14:23;;;;;;;;;4.20;3.40;;;;;24.02;62.33;99234.91;6310372;20;2748211;-48
2023/09/21 11:16:53;;;;;;;;;5.33;4.00;;;;;23.41;62.10;99233.22;6281393;20;2739881;-54
2023/09/21 11:19:23;;;;;;;;;6.33;3.67;;;;;23.93;62.50;99236.03;6317556;20;2748191;-50
2023/09/21 11:21:53;;;;;;;;;5.00;5.00;;;;;23.59;63.97;99229.22;6337500;20;2738854;-51
2023/09/21 11:24:23;;;;;;;;;5.00;5.00;;;;;24.21;61.86;99227.94;6307356;20;2743021;-51
2023/09/21 11:26:54;;;;;;;;;7.60;5.80;;;;;24.70;61.26;99217.09;6305024;20;2746655;-49